sensor_id;sensor_type;location;lat;lon;timestamp;P1;durP1;ratioP1;P2;durP2;ratioP2
77876;SDS011;67251;50.844;7.978;2023-05-07T00:00:12;4.40;;;1.60;;
77876;SDS011;67251;50.844;7.978;2023-05-07T00:02:40;4.13;;;1.83;;
77876;SDS011;67251;50.844;7.978;2023-05-07T00:05:06;4.90;;;1.90;;
77876;SDS011;67251;50.844;7.978;2023-05-07T00:07:32;3.95;;;1.60;;
77876;SDS011;67251;50.844;7.978;2023-05-07T00:09:57;4.45;;;2.00;;
77876;SDS011;67251;50.844;7.978;2023-05-07T00:12:22;5.03;;;2.00;;
77876;SDS011;67251;50.844;7.978;2023-05-07T00:14:48;4.00;;;2.05;;
77876;SDS011;67251;50.844;7.978;2023-05-07T00:17:16;7.00;;;2.25;;
77876;SDS011;67251;50.844;7.978;2023-05-07T00:19:42;4.10;;;1.83;;
77876;SDS011;67251;50.844;7.978;2023-05-07T00:22:07;4.75;;;2.08;;
77876;SDS011;67251;50.844;7.978;2023-05-07T00:24:35;4.82;;;2.00;;
77876;SDS011;67251;50.844;7.978;2023-05-07T00:27:01;4.45;;;1.88;;
77876;SDS011;67251;50.844;7.978;2023-05-07T00:29:26;5.05;;;2.15;;
77876;SDS011;67251;50.844;7.978;2023-05-07T00:31:51;3.90;;;1.88;;
77876;SDS011;67251;50.844;7.978;2023-05-07T00:34:18;6.88;;;1.95;;
77876;SDS011;67251;50.844;7.978;2023-05-07T00:36:45;4.03;;;1.80;;
77876;SDS011;67251;50.844;7.978;2023-05-07T00:39:10;4.60;;;1.65;;
77876;SDS011;67251;50.844;7.978;2023-05-07T00:41:35;4.68;;;1.40;;
77876;SDS011;67251;50.844;7.978;2023-05-07T00:44:01;4.03;;;1.40;;
77876;SDS011;67251;50.844;7.978;2023-05-07T00:46:27;4.40;;;1.73;;
77876;SDS011;67251;50.844;7.978;2023-05-07T00:48:53;3.72;;;1.67;;
77876;SDS011;67251;50.844;7.978;2023-05-07T00:51:19;5.43;;;1.58;;
77876;SDS011;67251;50.844;7.978;2023-05-07T00:53:45;4.18;;;1.95;;
77876;SDS011;67251;50.844;7.978;2023-05-07T00:56:11;4.40;;;1.70;;
77876;SDS011;67251;50.844;7.978;2023-05-07T00:58:37;4.68;;;1.70;;
77876;SDS011;67251;50.844;7.978;2023-05-07T01:01:03;5.28;;;1.90;;
77876;SDS011;67251;50.844;7.978;2023-05-07T01:03:28;4.72;;;1.88;;
77876;SDS011;67251;50.844;7.978;2023-05-07T01:05:54;4.30;;;1.70;;
77876;SDS011;67251;50.844;7.978;2023-05-07T01:08:22;5.10;;;2.03;;
77876;SDS011;67251;50.844;7.978;2023-05-07T01:10:49;5.13;;;1.73;;
77876;SDS011;67251;50.844;7.978;2023-05-07T01:13:17;4.78;;;1.67;;
77876;SDS011;67251;50.844;7.978;2023-05-07T01:15:44;3.83;;;1.50;;
77876;SDS011;67251;50.844;7.978;2023-05-07T01:18:10;4.47;;;2.00;;
77876;SDS011;67251;50.844;7.978;2023-05-07T01:20:35;3.97;;;1.63;;
77876;SDS011;67251;50.844;7.978;2023-05-07T01:23:01;5.05;;;1.95;;
77876;SDS011;67251;50.844;7.978;2023-05-07T01:25:28;4.78;;;2.00;;
77876;SDS011;67251;50.844;7.978;2023-05-07T01:27:53;5.35;;;2.00;;
77876;SDS011;67251;50.844;7.978;2023-05-07T01:30:19;6.72;;;1.92;;
77876;SDS011;67251;50.844;7.978;2023-05-07T01:32:51;4.82;;;2.00;;
77876;SDS011;67251;50.844;7.978;2023-05-07T01:35:22;4.05;;;1.90;;
77876;SDS011;67251;50.844;7.978;2023-05-07T01:37:51;4.68;;;2.00;;
77876;SDS011;67251;50.844;7.978;2023-05-07T01:40:18;4.28;;;1.88;;
77876;SDS011;67251;50.844;7.978;2023-05-07T01:42:44;3.80;;;1.83;;
77876;SDS011;67251;50.844;7.978;2023-05-07T01:45:11;4.57;;;1.90;;
77876;SDS011;67251;50.844;7.978;2023-05-07T01:47:37;4.60;;;1.90;;
77876;SDS011;67251;50.844;7.978;2023-05-07T01:53:37;4.07;;;1.65;;
77876;SDS011;67251;50.844;7.978;2023-05-07T01:56:04;4.93;;;2.00;;
77876;SDS011;67251;50.844;7.978;2023-05-07T01:58:30;4.18;;;1.75;;
77876;SDS011;67251;50.844;7.978;2023-05-07T02:00:55;3.67;;;1.65;;
77876;SDS011;67251;50.844;7.978;2023-05-07T02:03:21;4.57;;;1.80;;
77876;SDS011;67251;50.844;7.978;2023-05-07T02:05:46;6.18;;;1.88;;
77876;SDS011;67251;50.844;7.978;2023-05-07T02:08:12;3.88;;;1.70;;
77876;SDS011;67251;50.844;7.978;2023-05-07T02:10:38;4.70;;;1.90;;
77876;SDS011;67251;50.844;7.978;2023-05-07T02:13:03;4.05;;;1.70;;
77876;SDS011;67251;50.844;7.978;2023-05-07T02:15:29;4.97;;;1.80;;
77876;SDS011;67251;50.844;7.978;2023-05-07T02:17:58;4.15;;;1.95;;
77876;SDS011;67251;50.844;7.978;2023-05-07T02:20:31;5.03;;;1.92;;
77876;SDS011;67251;50.844;7.978;2023-05-07T02:22:57;5.97;;;2.10;;
77876;SDS011;67251;50.844;7.978;2023-05-07T02:25:22;4.75;;;2.42;;
77876;SDS011;67251;50.844;7.978;2023-05-07T02:27:48;5.40;;;1.85;;
77876;SDS011;67251;50.844;7.978;2023-05-07T02:30:13;6.03;;;2.28;;
77876;SDS011;67251;50.844;7.978;2023-05-07T02:32:39;5.18;;;2.00;;
77876;SDS011;67251;50.844;7.978;2023-05-07T02:35:05;4.60;;;2.30;;
77876;SDS011;67251;50.844;7.978;2023-05-07T02:37:31;5.95;;;2.20;;
77876;SDS011;67251;50.844;7.978;2023-05-07T02:39:56;6.00;;;2.25;;
77876;SDS011;67251;50.844;7.978;2023-05-07T02:42:21;5.55;;;2.20;;
77876;SDS011;67251;50.844;7.978;2023-05-07T02:44:47;5.28;;;1.88;;
77876;SDS011;67251;50.844;7.978;2023-05-07T02:47:13;5.05;;;2.30;;
77876;SDS011;67251;50.844;7.978;2023-05-07T02:49:40;4.57;;;2.22;;
77876;SDS011;67251;50.844;7.978;2023-05-07T02:52:06;4.80;;;1.85;;
77876;SDS011;67251;50.844;7.978;2023-05-07T02:54:31;4.45;;;2.00;;
77876;SDS011;67251;50.844;7.978;2023-05-07T02:56:57;5.68;;;2.22;;
77876;SDS011;67251;50.844;7.978;2023-05-07T02:59:23;4.53;;;2.00;;
77876;SDS011;67251;50.844;7.978;2023-05-07T03:01:49;5.40;;;2.08;;
77876;SDS011;67251;50.844;7.978;2023-05-07T03:04:15;5.00;;;2.28;;
77876;SDS011;67251;50.844;7.978;2023-05-07T03:06:41;8.35;;;2.70;;
77876;SDS011;67251;50.844;7.978;2023-05-07T03:09:06;4.35;;;2.25;;
77876;SDS011;67251;50.844;7.978;2023-05-07T03:11:32;5.25;;;2.10;;
77876;SDS011;67251;50.844;7.978;2023-05-07T03:13:57;5.25;;;2.08;;
77876;SDS011;67251;50.844;7.978;2023-05-07T03:16:23;4.25;;;2.05;;
77876;SDS011;67251;50.844;7.978;2023-05-07T03:18:50;4.63;;;2.28;;
77876;SDS011;67251;50.844;7.978;2023-05-07T03:21:16;5.00;;;2.20;;
77876;SDS011;67251;50.844;7.978;2023-05-07T03:23:41;6.47;;;2.15;;
77876;SDS011;67251;50.844;7.978;2023-05-07T03:26:07;5.22;;;1.92;;
77876;SDS011;67251;50.844;7.978;2023-05-07T03:31:46;5.05;;;1.92;;
77876;SDS011;67251;50.844;7.978;2023-05-07T03:34:21;5.28;;;2.35;;
77876;SDS011;67251;50.844;7.978;2023-05-07T03:36:50;4.90;;;2.10;;
77876;SDS011;67251;50.844;7.978;2023-05-07T03:39:18;5.43;;;2.30;;
77876;SDS011;67251;50.844;7.978;2023-05-07T03:41:52;5.55;;;2.00;;
77876;SDS011;67251;50.844;7.978;2023-05-07T03:44:18;4.68;;;1.80;;
77876;SDS011;67251;50.844;7.978;2023-05-07T03:46:43;4.93;;;2.13;;
77876;SDS011;67251;50.844;7.978;2023-05-07T03:49:09;6.35;;;2.53;;
77876;SDS011;67251;50.844;7.978;2023-05-07T03:51:34;7.45;;;2.28;;
77876;SDS011;67251;50.844;7.978;2023-05-07T03:54:01;4.25;;;2.13;;
77876;SDS011;67251;50.844;7.978;2023-05-07T03:56:26;6.20;;;1.92;;
77876;SDS011;67251;50.844;7.978;2023-05-07T04:01:21;4.53;;;1.83;;
77876;SDS011;67251;50.844;7.978;2023-05-07T04:03:46;5.60;;;1.95;;
77876;SDS011;67251;50.844;7.978;2023-05-07T04:06:12;5.57;;;2.22;;
77876;SDS011;67251;50.844;7.978;2023-05-07T04:08:37;5.32;;;2.03;;
77876;SDS011;67251;50.844;7.978;2023-05-07T04:11:03;3.67;;;1.70;;
77876;SDS011;67251;50.844;7.978;2023-05-07T04:13:30;3.58;;;1.50;;
77876;SDS011;67251;50.844;7.978;2023-05-07T04:15:56;4.40;;;1.95;;
77876;SDS011;67251;50.844;7.978;2023-05-07T04:18:21;5.30;;;1.77;;
77876;SDS011;67251;50.844;7.978;2023-05-07T04:20:47;6.20;;;1.90;;
77876;SDS011;67251;50.844;7.978;2023-05-07T04:23:14;4.78;;;2.20;;
77876;SDS011;67251;50.844;7.978;2023-05-07T04:25:40;3.85;;;1.80;;
77876;SDS011;67251;50.844;7.978;2023-05-07T04:28:05;4.35;;;2.03;;
77876;SDS011;67251;50.844;7.978;2023-05-07T04:30:31;4.57;;;2.10;;
77876;SDS011;67251;50.844;7.978;2023-05-07T04:32:56;5.75;;;1.98;;
77876;SDS011;67251;50.844;7.978;2023-05-07T04:35:22;7.28;;;2.28;;
77876;SDS011;67251;50.844;7.978;2023-05-07T04:37:47;4.45;;;2.08;;
77876;SDS011;67251;50.844;7.978;2023-05-07T04:40:12;5.85;;;2.00;;
77876;SDS011;67251;50.844;7.978;2023-05-07T04:42:38;4.78;;;1.77;;
77876;SDS011;67251;50.844;7.978;2023-05-07T04:45:04;4.53;;;2.00;;
77876;SDS011;67251;50.844;7.978;2023-05-07T04:47:30;5.88;;;2.40;;
77876;SDS011;67251;50.844;7.978;2023-05-07T04:49:55;4.30;;;1.85;;
77876;SDS011;67251;50.844;7.978;2023-05-07T04:52:20;4.10;;;1.83;;
77876;SDS011;67251;50.844;7.978;2023-05-07T04:54:46;4.57;;;2.13;;
77876;SDS011;67251;50.844;7.978;2023-05-07T04:57:11;4.50;;;2.22;;
77876;SDS011;67251;50.844;7.978;2023-05-07T04:59:37;5.93;;;2.25;;
77876;SDS011;67251;50.844;7.978;2023-05-07T05:02:02;5.05;;;1.98;;
77876;SDS011;67251;50.844;7.978;2023-05-07T05:04:29;4.88;;;2.03;;
77876;SDS011;67251;50.844;7.978;2023-05-07T05:06:54;4.38;;;2.00;;
77876;SDS011;67251;50.844;7.978;2023-05-07T05:09:20;5.20;;;2.00;;
77876;SDS011;67251;50.844;7.978;2023-05-07T05:11:45;4.72;;;2.05;;
77876;SDS011;67251;50.844;7.978;2023-05-07T05:14:11;5.97;;;2.20;;
77876;SDS011;67251;50.844;7.978;2023-05-07T05:16:36;5.00;;;2.08;;
77876;SDS011;67251;50.844;7.978;2023-05-07T05:19:01;5.80;;;2.40;;
77876;SDS011;67251;50.844;7.978;2023-05-07T05:21:27;5.38;;;2.35;;
77876;SDS011;67251;50.844;7.978;2023-05-07T05:23:52;4.90;;;2.22;;
77876;SDS011;67251;50.844;7.978;2023-05-07T05:26:18;5.45;;;2.22;;
77876;SDS011;67251;50.844;7.978;2023-05-07T05:28:43;4.80;;;2.30;;
77876;SDS011;67251;50.844;7.978;2023-05-07T05:31:09;5.43;;;2.05;;
77876;SDS011;67251;50.844;7.978;2023-05-07T05:33:35;6.22;;;2.22;;
77876;SDS011;67251;50.844;7.978;2023-05-07T05:36:00;4.75;;;2.10;;
77876;SDS011;67251;50.844;7.978;2023-05-07T05:38:26;9.75;;;2.20;;
77876;SDS011;67251;50.844;7.978;2023-05-07T05:40:51;4.82;;;2.15;;
77876;SDS011;67251;50.844;7.978;2023-05-07T05:43:16;6.78;;;2.40;;
77876;SDS011;67251;50.844;7.978;2023-05-07T05:45:42;5.70;;;2.00;;
77876;SDS011;67251;50.844;7.978;2023-05-07T05:48:07;4.55;;;1.98;;
77876;SDS011;67251;50.844;7.978;2023-05-07T05:50:33;5.20;;;1.80;;
77876;SDS011;67251;50.844;7.978;2023-05-07T05:53:00;5.00;;;2.13;;
77876;SDS011;67251;50.844;7.978;2023-05-07T05:55:26;5.70;;;2.28;;
77876;SDS011;67251;50.844;7.978;2023-05-07T05:57:51;5.07;;;2.28;;
77876;SDS011;67251;50.844;7.978;2023-05-07T06:00:17;5.03;;;2.08;;
77876;SDS011;67251;50.844;7.978;2023-05-07T06:02:42;5.18;;;2.25;;
77876;SDS011;67251;50.844;7.978;2023-05-07T06:05:08;5.05;;;2.20;;
77876;SDS011;67251;50.844;7.978;2023-05-07T06:07:34;5.55;;;2.05;;
77876;SDS011;67251;50.844;7.978;2023-05-07T06:10:00;5.53;;;2.03;;
77876;SDS011;67251;50.844;7.978;2023-05-07T06:12:26;5.30;;;2.05;;
77876;SDS011;67251;50.844;7.978;2023-05-07T06:14:51;4.35;;;1.90;;
77876;SDS011;67251;50.844;7.978;2023-05-07T06:17:17;8.10;;;2.20;;
77876;SDS011;67251;50.844;7.978;2023-05-07T06:19:42;4.40;;;1.90;;
77876;SDS011;67251;50.844;7.978;2023-05-07T06:22:07;5.00;;;2.00;;
77876;SDS011;67251;50.844;7.978;2023-05-07T06:24:33;4.38;;;1.92;;
77876;SDS011;67251;50.844;7.978;2023-05-07T06:26:58;6.50;;;2.45;;
77876;SDS011;67251;50.844;7.978;2023-05-07T06:29:24;4.85;;;2.10;;
77876;SDS011;67251;50.844;7.978;2023-05-07T06:31:51;6.18;;;2.53;;
77876;SDS011;67251;50.844;7.978;2023-05-07T06:34:17;4.97;;;2.38;;
77876;SDS011;67251;50.844;7.978;2023-05-07T06:36:43;7.05;;;2.60;;
77876;SDS011;67251;50.844;7.978;2023-05-07T06:39:08;6.35;;;2.60;;
77876;SDS011;67251;50.844;7.978;2023-05-07T06:41:34;6.38;;;3.30;;
77876;SDS011;67251;50.844;7.978;2023-05-07T06:44:01;6.45;;;3.55;;
77876;SDS011;67251;50.844;7.978;2023-05-07T06:46:27;6.28;;;3.15;;
77876;SDS011;67251;50.844;7.978;2023-05-07T06:48:53;5.80;;;2.80;;
77876;SDS011;67251;50.844;7.978;2023-05-07T06:51:18;6.22;;;3.13;;
77876;SDS011;67251;50.844;7.978;2023-05-07T06:53:43;7.40;;;2.97;;
77876;SDS011;67251;50.844;7.978;2023-05-07T06:56:09;6.78;;;3.20;;
77876;SDS011;67251;50.844;7.978;2023-05-07T06:58:34;6.85;;;3.45;;
77876;SDS011;67251;50.844;7.978;2023-05-07T07:01:00;5.75;;;2.85;;
77876;SDS011;67251;50.844;7.978;2023-05-07T07:03:25;6.07;;;2.67;;
77876;SDS011;67251;50.844;7.978;2023-05-07T07:05:54;6.18;;;3.00;;
77876;SDS011;67251;50.844;7.978;2023-05-07T07:08:20;7.72;;;2.63;;
77876;SDS011;67251;50.844;7.978;2023-05-07T07:10:46;7.07;;;2.80;;
77876;SDS011;67251;50.844;7.978;2023-05-07T07:13:12;6.40;;;2.92;;
77876;SDS011;67251;50.844;7.978;2023-05-07T07:15:37;5.40;;;3.00;;
77876;SDS011;67251;50.844;7.978;2023-05-07T07:18:03;5.10;;;2.50;;
77876;SDS011;67251;50.844;7.978;2023-05-07T07:20:29;6.32;;;2.83;;
77876;SDS011;67251;50.844;7.978;2023-05-07T07:22:54;5.32;;;2.70;;
77876;SDS011;67251;50.844;7.978;2023-05-07T07:25:20;6.70;;;2.75;;
77876;SDS011;67251;50.844;7.978;2023-05-07T07:27:45;4.93;;;2.58;;
77876;SDS011;67251;50.844;7.978;2023-05-07T07:30:10;4.53;;;2.58;;
77876;SDS011;67251;50.844;7.978;2023-05-07T07:32:36;6.35;;;2.72;;
77876;SDS011;67251;50.844;7.978;2023-05-07T07:35:02;5.00;;;2.60;;
77876;SDS011;67251;50.844;7.978;2023-05-07T07:37:28;6.38;;;2.70;;
77876;SDS011;67251;50.844;7.978;2023-05-07T07:39:53;5.38;;;2.83;;
77876;SDS011;67251;50.844;7.978;2023-05-07T07:42:18;4.50;;;2.42;;
77876;SDS011;67251;50.844;7.978;2023-05-07T07:44:44;5.35;;;2.80;;
77876;SDS011;67251;50.844;7.978;2023-05-07T07:47:10;4.68;;;2.60;;
77876;SDS011;67251;50.844;7.978;2023-05-07T07:49:35;6.10;;;3.00;;
77876;SDS011;67251;50.844;7.978;2023-05-07T07:52:01;5.72;;;2.90;;
77876;SDS011;67251;50.844;7.978;2023-05-07T07:54:26;6.45;;;2.78;;
77876;SDS011;67251;50.844;7.978;2023-05-07T07:56:52;5.05;;;2.40;;
77876;SDS011;67251;50.844;7.978;2023-05-07T08:01:45;4.88;;;2.55;;
77876;SDS011;67251;50.844;7.978;2023-05-07T08:04:13;6.25;;;2.97;;
77876;SDS011;67251;50.844;7.978;2023-05-07T08:06:38;6.63;;;2.60;;
77876;SDS011;67251;50.844;7.978;2023-05-07T08:09:04;4.25;;;2.17;;
77876;SDS011;67251;50.844;7.978;2023-05-07T08:11:29;5.22;;;2.63;;
77876;SDS011;67251;50.844;7.978;2023-05-07T08:13:54;4.78;;;2.47;;
77876;SDS011;67251;50.844;7.978;2023-05-07T08:16:21;6.55;;;2.95;;
77876;SDS011;67251;50.844;7.978;2023-05-07T08:18:46;6.88;;;2.63;;
77876;SDS011;67251;50.844;7.978;2023-05-07T08:21:11;4.53;;;2.63;;
77876;SDS011;67251;50.844;7.978;2023-05-07T08:23:37;5.43;;;2.45;;
77876;SDS011;67251;50.844;7.978;2023-05-07T08:26:02;5.45;;;2.67;;
77876;SDS011;67251;50.844;7.978;2023-05-07T08:28:28;6.45;;;2.53;;
77876;SDS011;67251;50.844;7.978;2023-05-07T08:30:53;5.90;;;2.33;;
77876;SDS011;67251;50.844;7.978;2023-05-07T08:33:19;5.07;;;2.50;;
77876;SDS011;67251;50.844;7.978;2023-05-07T08:35:44;4.85;;;2.47;;
77876;SDS011;67251;50.844;7.978;2023-05-07T08:38:10;4.63;;;2.30;;
77876;SDS011;67251;50.844;7.978;2023-05-07T08:40:38;5.57;;;2.65;;
77876;SDS011;67251;50.844;7.978;2023-05-07T08:43:06;5.65;;;2.45;;
77876;SDS011;67251;50.844;7.978;2023-05-07T08:45:32;5.30;;;2.83;;
77876;SDS011;67251;50.844;7.978;2023-05-07T08:47:59;5.15;;;2.22;;
77876;SDS011;67251;50.844;7.978;2023-05-07T08:52:53;4.88;;;2.47;;
77876;SDS011;67251;50.844;7.978;2023-05-07T08:55:19;7.35;;;2.55;;
77876;SDS011;67251;50.844;7.978;2023-05-07T08:57:45;5.28;;;2.50;;
77876;SDS011;67251;50.844;7.978;2023-05-07T09:00:12;4.50;;;2.50;;
77876;SDS011;67251;50.844;7.978;2023-05-07T09:02:38;5.90;;;2.72;;
77876;SDS011;67251;50.844;7.978;2023-05-07T09:05:03;4.90;;;2.45;;
77876;SDS011;67251;50.844;7.978;2023-05-07T09:07:30;9.75;;;2.83;;
77876;SDS011;67251;50.844;7.978;2023-05-07T09:09:56;5.03;;;2.70;;
77876;SDS011;67251;50.844;7.978;2023-05-07T09:12:22;5.35;;;2.42;;
77876;SDS011;67251;50.844;7.978;2023-05-07T09:14:48;6.45;;;3.55;;
77876;SDS011;67251;50.844;7.978;2023-05-07T09:17:17;5.13;;;2.47;;
77876;SDS011;67251;50.844;7.978;2023-05-07T09:19:43;5.38;;;2.63;;
77876;SDS011;67251;50.844;7.978;2023-05-07T09:22:12;6.00;;;3.30;;
77876;SDS011;67251;50.844;7.978;2023-05-07T09:24:38;4.57;;;2.40;;
77876;SDS011;67251;50.844;7.978;2023-05-07T09:27:04;4.70;;;2.70;;
77876;SDS011;67251;50.844;7.978;2023-05-07T09:29:30;5.75;;;2.40;;
77876;SDS011;67251;50.844;7.978;2023-05-07T09:32:09;5.75;;;2.60;;
77876;SDS011;67251;50.844;7.978;2023-05-07T09:37:04;5.78;;;2.63;;
77876;SDS011;67251;50.844;7.978;2023-05-07T09:39:47;4.22;;;2.38;;
77876;SDS011;67251;50.844;7.978;2023-05-07T09:42:13;5.32;;;2.63;;
77876;SDS011;67251;50.844;7.978;2023-05-07T09:44:43;5.28;;;2.63;;
77876;SDS011;67251;50.844;7.978;2023-05-07T09:47:09;4.25;;;2.38;;
77876;SDS011;67251;50.844;7.978;2023-05-07T09:49:37;5.30;;;2.80;;
77876;SDS011;67251;50.844;7.978;2023-05-07T09:52:05;5.85;;;2.42;;
77876;SDS011;67251;50.844;7.978;2023-05-07T09:54:33;4.10;;;2.10;;
77876;SDS011;67251;50.844;7.978;2023-05-07T09:57:01;4.60;;;2.05;;
77876;SDS011;67251;50.844;7.978;2023-05-07T09:59:28;5.13;;;2.08;;
77876;SDS011;67251;50.844;7.978;2023-05-07T10:01:56;4.43;;;2.25;;
77876;SDS011;67251;50.844;7.978;2023-05-07T10:04:23;3.75;;;1.73;;
77876;SDS011;67251;50.844;7.978;2023-05-07T10:06:50;4.38;;;2.10;;
77876;SDS011;67251;50.844;7.978;2023-05-07T10:09:15;4.75;;;1.80;;
77876;SDS011;67251;50.844;7.978;2023-05-07T10:11:41;3.78;;;1.52;;
77876;SDS011;67251;50.844;7.978;2023-05-07T10:14:08;4.25;;;1.83;;
77876;SDS011;67251;50.844;7.978;2023-05-07T10:16:35;4.50;;;1.98;;
77876;SDS011;67251;50.844;7.978;2023-05-07T10:19:05;4.57;;;1.92;;
77876;SDS011;67251;50.844;7.978;2023-05-07T10:21:32;4.28;;;2.10;;
77876;SDS011;67251;50.844;7.978;2023-05-07T10:24:20;5.47;;;2.33;;
77876;SDS011;67251;50.844;7.978;2023-05-07T10:26:50;4.50;;;1.95;;
77876;SDS011;67251;50.844;7.978;2023-05-07T10:31:51;4.72;;;2.10;;
77876;SDS011;67251;50.844;7.978;2023-05-07T10:34:23;4.50;;;2.40;;
77876;SDS011;67251;50.844;7.978;2023-05-07T10:36:52;4.70;;;2.42;;
77876;SDS011;67251;50.844;7.978;2023-05-07T10:39:20;4.75;;;2.20;;
77876;SDS011;67251;50.844;7.978;2023-05-07T10:41:46;5.05;;;2.28;;
77876;SDS011;67251;50.844;7.978;2023-05-07T10:44:24;4.13;;;2.00;;
77876;SDS011;67251;50.844;7.978;2023-05-07T10:49:33;4.60;;;2.28;;
77876;SDS011;67251;50.844;7.978;2023-05-07T10:52:15;4.53;;;2.50;;
77876;SDS011;67251;50.844;7.978;2023-05-07T10:54:43;4.25;;;2.03;;
77876;SDS011;67251;50.844;7.978;2023-05-07T10:59:53;4.07;;;2.15;;
77876;SDS011;67251;50.844;7.978;2023-05-07T11:02:19;3.70;;;1.73;;
77876;SDS011;67251;50.844;7.978;2023-05-07T11:04:44;3.70;;;2.00;;
77876;SDS011;67251;50.844;7.978;2023-05-07T11:07:29;4.05;;;1.70;;
77876;SDS011;67251;50.844;7.978;2023-05-07T11:09:56;3.60;;;1.40;;
77876;SDS011;67251;50.844;7.978;2023-05-07T11:17:32;4.78;;;1.80;;
77876;SDS011;67251;50.844;7.978;2023-05-07T11:19:59;4.43;;;2.20;;
77876;SDS011;67251;50.844;7.978;2023-05-07T11:25:00;4.78;;;1.95;;
77876;SDS011;67251;50.844;7.978;2023-05-07T11:27:26;3.88;;;1.77;;
77876;SDS011;67251;50.844;7.978;2023-05-07T11:29:51;4.13;;;1.80;;
77876;SDS011;67251;50.844;7.978;2023-05-07T11:32:23;4.75;;;1.60;;
77876;SDS011;67251;50.844;7.978;2023-05-07T11:34:51;4.50;;;1.88;;
77876;SDS011;67251;50.844;7.978;2023-05-07T11:37:20;4.55;;;1.88;;
77876;SDS011;67251;50.844;7.978;2023-05-07T11:39:47;4.07;;;1.98;;
77876;SDS011;67251;50.844;7.978;2023-05-07T11:42:28;4.38;;;2.20;;
77876;SDS011;67251;50.844;7.978;2023-05-07T11:44:55;4.85;;;2.30;;
77876;SDS011;67251;50.844;7.978;2023-05-07T11:47:21;5.22;;;2.40;;
77876;SDS011;67251;50.844;7.978;2023-05-07T11:49:51;4.93;;;2.40;;
77876;SDS011;67251;50.844;7.978;2023-05-07T11:52:18;4.22;;;2.10;;
77876;SDS011;67251;50.844;7.978;2023-05-07T11:54:51;4.72;;;2.40;;
77876;SDS011;67251;50.844;7.978;2023-05-07T11:57:18;4.45;;;2.10;;
77876;SDS011;67251;50.844;7.978;2023-05-07T11:59:44;5.93;;;2.20;;
77876;SDS011;67251;50.844;7.978;2023-05-07T12:02:13;5.03;;;2.13;;
77876;SDS011;67251;50.844;7.978;2023-05-07T12:04:42;4.18;;;1.88;;
77876;SDS011;67251;50.844;7.978;2023-05-07T12:07:11;5.22;;;2.30;;
77876;SDS011;67251;50.844;7.978;2023-05-07T12:09:37;5.40;;;2.33;;
77876;SDS011;67251;50.844;7.978;2023-05-07T12:12:03;7.25;;;2.30;;
77876;SDS011;67251;50.844;7.978;2023-05-07T12:14:29;4.93;;;2.22;;
77876;SDS011;67251;50.844;7.978;2023-05-07T12:16:55;4.38;;;2.22;;
77876;SDS011;67251;50.844;7.978;2023-05-07T12:19:21;5.13;;;2.65;;
77876;SDS011;67251;50.844;7.978;2023-05-07T12:21:47;5.82;;;2.67;;
77876;SDS011;67251;50.844;7.978;2023-05-07T12:24:14;4.47;;;2.22;;
77876;SDS011;67251;50.844;7.978;2023-05-07T12:26:40;4.82;;;2.83;;
77876;SDS011;67251;50.844;7.978;2023-05-07T12:29:06;6.07;;;3.45;;
77876;SDS011;67251;50.844;7.978;2023-05-07T12:31:31;5.80;;;2.78;;
77876;SDS011;67251;50.844;7.978;2023-05-07T12:33:57;6.38;;;2.97;;
77876;SDS011;67251;50.844;7.978;2023-05-07T12:36:22;5.90;;;2.80;;
77876;SDS011;67251;50.844;7.978;2023-05-07T12:38:49;5.25;;;2.72;;
77876;SDS011;67251;50.844;7.978;2023-05-07T12:41:15;4.57;;;2.58;;
77876;SDS011;67251;50.844;7.978;2023-05-07T12:43:43;5.85;;;3.05;;
77876;SDS011;67251;50.844;7.978;2023-05-07T12:46:09;4.90;;;2.40;;
77876;SDS011;67251;50.844;7.978;2023-05-07T12:48:38;4.90;;;2.40;;
77876;SDS011;67251;50.844;7.978;2023-05-07T12:51:08;5.43;;;2.67;;
77876;SDS011;67251;50.844;7.978;2023-05-07T12:53:39;6.25;;;2.85;;
77876;SDS011;67251;50.844;7.978;2023-05-07T12:56:05;5.57;;;2.50;;
77876;SDS011;67251;50.844;7.978;2023-05-07T12:58:33;5.95;;;3.38;;
77876;SDS011;67251;50.844;7.978;2023-05-07T13:01:00;5.90;;;3.42;;
77876;SDS011;67251;50.844;7.978;2023-05-07T13:03:36;5.88;;;3.00;;
77876;SDS011;67251;50.844;7.978;2023-05-07T13:06:06;5.25;;;2.72;;
77876;SDS011;67251;50.844;7.978;2023-05-07T13:11:02;5.70;;;2.78;;
77876;SDS011;67251;50.844;7.978;2023-05-07T13:13:29;7.72;;;3.78;;
77876;SDS011;67251;50.844;7.978;2023-05-07T13:15:58;5.00;;;2.75;;
77876;SDS011;67251;50.844;7.978;2023-05-07T13:18:25;7.18;;;4.18;;
77876;SDS011;67251;50.844;7.978;2023-05-07T13:20:51;6.63;;;3.80;;
77876;SDS011;67251;50.844;7.978;2023-05-07T13:23:17;8.05;;;3.78;;
77876;SDS011;67251;50.844;7.978;2023-05-07T13:25:42;5.95;;;3.42;;
77876;SDS011;67251;50.844;7.978;2023-05-07T13:28:08;6.45;;;3.80;;
77876;SDS011;67251;50.844;7.978;2023-05-07T13:30:33;6.57;;;3.72;;
77876;SDS011;67251;50.844;7.978;2023-05-07T13:32:59;5.82;;;3.30;;
77876;SDS011;67251;50.844;7.978;2023-05-07T13:35:25;6.88;;;3.60;;
77876;SDS011;67251;50.844;7.978;2023-05-07T13:37:50;6.20;;;3.33;;
77876;SDS011;67251;50.844;7.978;2023-05-07T13:40:17;7.72;;;4.10;;
77876;SDS011;67251;50.844;7.978;2023-05-07T13:42:44;6.47;;;4.00;;
77876;SDS011;67251;50.844;7.978;2023-05-07T13:45:10;5.60;;;3.20;;
77876;SDS011;67251;50.844;7.978;2023-05-07T13:47:35;8.48;;;3.83;;
77876;SDS011;67251;50.844;7.978;2023-05-07T13:50:01;6.68;;;3.38;;
77876;SDS011;67251;50.844;7.978;2023-05-07T13:52:26;6.07;;;3.03;;
77876;SDS011;67251;50.844;7.978;2023-05-07T13:54:51;5.32;;;2.47;;
77876;SDS011;67251;50.844;7.978;2023-05-07T13:57:17;5.22;;;2.70;;
77876;SDS011;67251;50.844;7.978;2023-05-07T13:59:43;6.18;;;2.92;;
77876;SDS011;67251;50.844;7.978;2023-05-07T14:02:08;7.25;;;3.13;;
77876;SDS011;67251;50.844;7.978;2023-05-07T14:04:34;5.15;;;2.53;;
77876;SDS011;67251;50.844;7.978;2023-05-07T14:06:59;5.13;;;2.72;;
77876;SDS011;67251;50.844;7.978;2023-05-07T14:09:25;6.10;;;3.10;;
77876;SDS011;67251;50.844;7.978;2023-05-07T14:11:50;5.68;;;3.08;;
77876;SDS011;67251;50.844;7.978;2023-05-07T14:14:17;6.63;;;2.70;;
77876;SDS011;67251;50.844;7.978;2023-05-07T14:16:43;5.05;;;2.92;;
77876;SDS011;67251;50.844;7.978;2023-05-07T14:19:10;5.97;;;3.00;;
77876;SDS011;67251;50.844;7.978;2023-05-07T14:21:36;6.50;;;2.72;;
77876;SDS011;67251;50.844;7.978;2023-05-07T14:24:01;6.20;;;3.10;;
77876;SDS011;67251;50.844;7.978;2023-05-07T14:26:27;5.10;;;2.53;;
77876;SDS011;67251;50.844;7.978;2023-05-07T14:28:52;6.38;;;3.10;;
77876;SDS011;67251;50.844;7.978;2023-05-07T14:31:20;7.22;;;2.67;;
77876;SDS011;67251;50.844;7.978;2023-05-07T14:33:45;7.30;;;3.10;;
77876;SDS011;67251;50.844;7.978;2023-05-07T14:36:13;6.65;;;3.13;;
77876;SDS011;67251;50.844;7.978;2023-05-07T14:38:40;6.35;;;2.72;;
77876;SDS011;67251;50.844;7.978;2023-05-07T14:41:05;5.75;;;2.63;;
77876;SDS011;67251;50.844;7.978;2023-05-07T14:43:30;6.35;;;2.67;;
77876;SDS011;67251;50.844;7.978;2023-05-07T14:45:56;6.80;;;3.08;;
77876;SDS011;67251;50.844;7.978;2023-05-07T14:48:21;4.13;;;2.25;;
77876;SDS011;67251;50.844;7.978;2023-05-07T14:50:47;7.55;;;3.20;;
77876;SDS011;67251;50.844;7.978;2023-05-07T14:53:13;5.18;;;2.35;;
77876;SDS011;67251;50.844;7.978;2023-05-07T14:55:38;6.28;;;2.65;;
77876;SDS011;67251;50.844;7.978;2023-05-07T14:58:04;5.65;;;3.00;;
77876;SDS011;67251;50.844;7.978;2023-05-07T15:00:29;6.35;;;2.88;;
77876;SDS011;67251;50.844;7.978;2023-05-07T15:02:56;4.47;;;2.10;;
77876;SDS011;67251;50.844;7.978;2023-05-07T15:05:30;5.85;;;3.00;;
77876;SDS011;67251;50.844;7.978;2023-05-07T15:07:55;6.32;;;2.88;;
77876;SDS011;67251;50.844;7.978;2023-05-07T15:10:20;5.38;;;2.90;;
77876;SDS011;67251;50.844;7.978;2023-05-07T15:12:46;5.95;;;2.85;;
77876;SDS011;67251;50.844;7.978;2023-05-07T15:15:11;8.73;;;3.85;;
77876;SDS011;67251;50.844;7.978;2023-05-07T15:17:37;6.55;;;3.63;;